Time;durP1;ratioP1;P1;durP2;ratioP2;P2;SDS_P1;SDS_P2;PMS_P1;PMS_P2;Temp;Humidity;BMP_temperature;BMP_pressure;BME280_temperature;BME280_humidity;BME280_pressure;Samples;Min_cycle;Max_cycle;Signal;HPM_P1;HPM_P2
2021/12/09 00:01:12;;;;;;;13.30;6.05;;;3.10;99.90;;;;;;5044684;28;20080;-72
2021/12/09 00:03:40;;;;;;;13.48;6.80;;;3.10;99.90;;;;;;5049427;28;20040;-72
2021/12/09 00:06:07;;;;;;;11.93;6.25;;;3.10;99.90;;;;;;5033579;28;20498;-72
2021/12/09 00:08:34;;;;;;;11.05;6.75;;;3.10;99.90;;;;;;5066957;28;20386;-72
2021/12/09 00:11:01;;;;;;;11.15;6.38;;;3.10;99.90;;;;;;5056303;28;20051;-72
2021/12/09 00:13:28;;;;;;;15.65;6.25;;;3.10;99.90;;;;;;5062663;28;20033;-72
2021/12/09 00:15:55;;;;;;;10.50;6.30;;;3.10;99.90;;;;;;5052472;28;20444;-71
2021/12/09 00:18:21;;;;;;;14.50;6.50;;;3.10;99.90;;;;;;5065785;28;20051;-71
2021/12/09 00:20:47;;;;;;;13.63;7.20;;;3.10;99.90;;;;;;5039349;28;20104;-72
2021/12/09 00:23:13;;;;;;;15.57;6.75;;;3.10;99.90;;;;;;5041934;28;20048;-72
2021/12/09 00:25:40;;;;;;;13.07;7.45;;;3.00;99.90;;;;;;5070125;28;20059;-71
2021/12/09 00:28:06;;;;;;;12.38;7.28;;;3.00;99.90;;;;;;5069912;28;20040;-71
2021/12/09 00:30:33;;;;;;;13.75;7.18;;;3.00;99.90;;;;;;5043516;28;20081;-72
2021/12/09 00:33:02;;;;;;;14.70;7.20;;;3.00;99.90;;;;;;5031688;28;20394;-71
2021/12/09 00:35:33;;;;;;;17.70;7.80;;;3.00;99.90;;;;;;5046864;28;20033;-71
2021/12/09 00:38:01;;;;;;;15.20;7.50;;;3.00;99.90;;;;;;5060988;28;20465;-72
2021/12/09 00:40:27;;;;;;;14.65;7.55;;;2.90;99.90;;;;;;5064369;28;20078;-72
2021/12/09 00:42:52;;;;;;;17.65;7.22;;;2.90;99.90;;;;;;5035894;28;20489;-72
2021/12/09 00:45:18;;;;;;;12.07;6.70;;;2.90;99.90;;;;;;5072395;28;20170;-72
2021/12/09 00:47:45;;;;;;;15.52;7.07;;;2.90;99.90;;;;;;5064695;28;20445;-71
2021/12/09 00:50:11;;;;;;;15.98;7.90;;;2.90;99.90;;;;;;5058923;28;20047;-72
2021/12/09 00:52:37;;;;;;;12.23;7.45;;;2.80;99.90;;;;;;5071078;28;20064;-71
2021/12/09 00:55:04;;;;;;;17.33;7.75;;;2.80;99.90;;;;;;5051986;28;20036;-71
2021/12/09 00:57:30;;;;;;;14.38;7.47;;;2.70;99.90;;;;;;5069147;28;20052;-71
2021/12/09 00:59:56;;;;;;;12.38;7.97;;;2.70;99.90;;;;;;5059288;28;20041;-71
2021/12/09 01:02:21;;;;;;;14.65;7.78;;;2.70;99.90;;;;;;5052923;28;20049;-71
2021/12/09 01:04:47;;;;;;;13.48;7.82;;;2.70;99.90;;;;;;5051377;28;20036;-71
2021/12/09 01:07:14;;;;;;;15.40;8.15;;;2.70;99.90;;;;;;5035036;28;20123;-71
2021/12/09 01:09:40;;;;;;;15.02;8.10;;;2.70;99.90;;;;;;5067652;28;20062;-71
2021/12/09 01:12:06;;;;;;;15.90;8.27;;;2.70;99.90;;;;;;5051001;28;20041;-72
2021/12/09 01:14:33;;;;;;;15.45;8.35;;;2.70;99.90;;;;;;5069283;28;20131;-72
2021/12/09 01:16:58;;;;;;;15.05;7.75;;;2.70;99.90;;;;;;5039689;28;20469;-72
2021/12/09 01:19:24;;;;;;;16.02;8.85;;;2.70;99.90;;;;;;5027241;28;20076;-71
2021/12/09 01:21:50;;;;;;;13.55;8.73;;;2.70;99.90;;;;;;5051599;28;20508;-71
2021/12/09 01:24:16;;;;;;;15.38;8.23;;;2.70;99.90;;;;;;5031846;28;20057;-71
2021/12/09 01:26:41;;;;;;;15.50;8.55;;;2.70;99.90;;;;;;5049249;28;20523;-72
2021/12/09 01:29:16;;;;;;;14.15;8.82;;;2.70;99.90;;;;;;5052245;28;20123;-71
2021/12/09 01:31:51;;;;;;;17.25;8.90;;;2.70;99.90;;;;;;5052050;28;20053;-71
2021/12/09 01:34:19;;;;;;;18.85;8.90;;;2.70;99.90;;;;;;5036924;28;20048;-70
2021/12/09 01:36:45;;;;;;;18.73;8.63;;;2.70;99.90;;;;;;5050225;28;20116;-70
2021/12/09 01:39:11;;;;;;;18.85;9.48;;;2.80;99.90;;;;;;5049312;28;20470;-70
2021/12/09 01:41:37;;;;;;;17.05;9.20;;;2.70;99.90;;;;;;5035738;28;20079;-72
2021/12/09 01:44:03;;;;;;;13.48;8.90;;;2.70;99.90;;;;;;5049948;28;20087;-72
2021/12/09 01:46:28;;;;;;;19.98;9.60;;;2.70;99.90;;;;;;5032139;28;20036;-72
2021/12/09 01:48:54;;;;;;;16.92;9.10;;;2.70;99.90;;;;;;5067353;28;20098;-72
2021/12/09 01:51:20;;;;;;;16.63;10.02;;;2.60;99.90;;;;;;5063074;28;20083;-72
2021/12/09 01:53:47;;;;;;;17.35;9.63;;;2.60;99.90;;;;;;5048494;28;20045;-72
2021/12/09 01:56:21;;;;;;;19.38;9.90;;;2.60;99.90;;;;;;5050188;28;20115;-72
2021/12/09 01:59:13;;;;;;;17.48;9.20;;;2.60;99.90;;;;;;5031709;28;20469;-72
2021/12/09 02:01:39;;;;;;;17.67;8.95;;;2.60;99.90;;;;;;5048377;28;20070;-72
2021/12/09 02:04:08;;;;;;;16.95;10.02;;;2.60;99.90;;;;;;5051852;28;20032;-72
2021/12/09 02:06:35;;;;;;;17.90;10.30;;;2.50;99.90;;;;;;5067201;28;20116;-72
2021/12/09 02:09:02;;;;;;;18.80;9.93;;;2.50;99.90;;;;;;5066236;28;20084;-72
2021/12/09 02:11:28;;;;;;;16.52;10.30;;;2.50;99.90;;;;;;5065670;28;20037;-71
2021/12/09 02:13:56;;;;;;;19.77;10.77;;;2.40;99.90;;;;;;5064959;28;20116;-70
2021/12/09 02:16:22;;;;;;;15.45;9.63;;;2.50;99.90;;;;;;5047072;28;20052;-70
2021/12/09 02:18:48;;;;;;;15.88;10.07;;;2.60;99.90;;;;;;5038458;28;20045;-71
2021/12/09 02:21:20;;;;;;;16.55;9.90;;;2.60;99.90;;;;;;5061274;28;20049;-71
2021/12/09 02:23:55;;;;;;;14.80;10.25;;;2.50;99.90;;;;;;5050701;28;20049;-71
2021/12/09 02:26:25;;;;;;;17.47;10.53;;;2.50;99.90;;;;;;5066033;28;20040;-71
2021/12/09 02:28:52;;;;;;;21.50;10.45;;;2.50;99.90;;;;;;5067836;28;20299;-72
2021/12/09 02:31:17;;;;;;;19.45;10.98;;;3.60;99.90;;;;;;5051838;28;20102;-71
2021/12/09 02:33:43;;;;;;;20.00;10.90;;;2.50;99.90;;;;;;5048115;28;20127;-71
2021/12/09 02:36:09;;;;;;;18.92;10.50;;;2.50;99.90;;;;;;5047745;28;20040;-70
2021/12/09 02:38:42;;;;;;;19.25;10.65;;;2.50;99.90;;;;;;5031105;28;20052;-69
2021/12/09 02:41:10;;;;;;;17.75;10.57;;;2.40;99.90;;;;;;5046080;28;20055;-69
2021/12/09 02:43:36;;;;;;;17.77;10.82;;;2.40;99.90;;;;;;5068228;28;20048;-71
2021/12/09 02:46:02;;;;;;;17.08;10.80;;;2.50;99.90;;;;;;5023281;28;20051;-71
2021/12/09 02:48:28;;;;;;;17.52;11.35;;;2.40;99.90;;;;;;5065635;28;20396;-71
2021/12/09 02:50:54;;;;;;;18.55;11.00;;;2.40;99.90;;;;;;5066381;28;20041;-70
2021/12/09 02:53:20;;;;;;;18.52;10.77;;;2.40;99.90;;;;;;5070069;28;20065;-71
2021/12/09 02:55:46;;;;;;;18.65;10.88;;;2.40;99.90;;;;;;5051179;28;20118;-71
2021/12/09 02:58:13;;;;;;;21.40;11.25;;;2.50;99.90;;;;;;5068050;28;20056;-71
2021/12/09 03:00:58;;;;;;;18.77;11.10;;;2.40;99.90;;;;;;5016548;28;20127;-71
2021/12/09 03:03:25;;;;;;;15.73;9.93;;;2.40;99.90;;;;;;5053765;28;20049;-71
2021/12/09 03:05:56;;;;;;;21.67;10.48;;;2.40;99.90;;;;;;5047736;28;20084;-70
2021/12/09 03:08:33;;;;;;;16.70;10.10;;;2.30;99.90;;;;;;5063054;28;20036;-71
2021/12/09 03:11:03;;;;;;;16.38;10.48;;;2.30;99.90;;;;;;5048683;28;20057;-71
2021/12/09 03:13:29;;;;;;;19.40;10.23;;;2.30;99.90;;;;;;5052136;28;20037;-71
2021/12/09 03:15:54;;;;;;;20.55;11.02;;;2.30;99.90;;;;;;5034067;28;20508;-71
2021/12/09 03:18:20;;;;;;;20.05;10.82;;;2.30;99.90;;;;;;5034497;28;20078;-71
2021/12/09 03:20:46;;;;;;;22.75;11.30;;;3.40;99.90;;;;;;5051522;28;20474;-71
2021/12/09 03:23:11;;;;;;;18.92;11.27;;;2.30;99.90;;;;;;5033796;28;20084;-71
2021/12/09 03:25:37;;;;;;;19.30;11.38;;;2.20;99.90;;;;;;5066212;28;20482;-71
2021/12/09 03:28:03;;;;;;;20.88;11.23;;;2.20;99.90;;;;;;5047892;28;20041;-71
2021/12/09 03:30:28;;;;;;;22.02;12.18;;;2.20;99.90;;;;;;5051767;28;20443;-71
2021/12/09 03:32:56;;;;;;;22.75;12.43;;;2.10;99.90;;;;;;5053022;28;20175;-71
2021/12/09 03:35:22;;;;;;;21.05;11.85;;;2.10;99.90;;;;;;5066953;28;20077;-71
2021/12/09 03:37:48;;;;;;;17.70;11.18;;;2.10;99.90;;;;;;5051910;28;20079;-71
2021/12/09 03:40:15;;;;;;;20.15;12.32;;;2.10;99.90;;;;;;5066077;28;20509;-70
2021/12/09 03:42:43;;;;;;;20.13;12.15;;;2.10;99.90;;;;;;5036867;28;20155;-71
2021/12/09 03:45:09;;;;;;;20.88;11.68;;;2.10;99.90;;;;;;5050892;28;20500;-71
2021/12/09 03:47:36;;;;;;;22.48;12.20;;;2.10;99.90;;;;;;5062257;28;20351;-71
2021/12/09 03:50:05;;;;;;;17.60;11.52;;;2.10;99.90;;;;;;5021523;28;20056;-71
2021/12/09 03:52:31;;;;;;;19.27;11.57;;;2.10;99.90;;;;;;5051981;28;20060;-71
2021/12/09 03:54:58;;;;;;;26.15;12.20;;;1.60;99.90;;;;;;5052800;28;20119;-71
2021/12/09 03:57:24;;;;;;;20.45;12.27;;;2.10;99.90;;;;;;5072162;28;20386;-70
2021/12/09 03:59:50;;;;;;;19.13;12.27;;;2.10;99.90;;;;;;5035862;28;20116;-71
2021/12/09 04:02:16;;;;;;;19.45;11.98;;;2.10;99.90;;;;;;5071603;28;20211;-71
2021/12/09 04:04:42;;;;;;;23.13;12.70;;;2.10;99.90;;;;;;5052624;28;20055;-71
2021/12/09 04:07:08;;;;;;;22.75;12.07;;;2.10;99.90;;;;;;5068359;28;20052;-70
2021/12/09 04:09:34;;;;;;;19.77;11.73;;;2.00;99.90;;;;;;5051849;28;20080;-71
2021/12/09 04:12:00;;;;;;;19.05;11.73;;;2.10;99.90;;;;;;5043290;28;20127;-71
2021/12/09 04:14:26;;;;;;;24.10;11.68;;;2.00;99.90;;;;;;5052738;28;20640;-71
2021/12/09 04:16:52;;;;;;;19.08;11.50;;;2.00;99.90;;;;;;5051118;28;20555;-71
2021/12/09 04:19:19;;;;;;;23.45;11.80;;;2.00;99.90;;;;;;5050341;28;20033;-71
2021/12/09 04:21:45;;;;;;;22.23;12.13;;;2.00;99.90;;;;;;5066230;28;20049;-71
2021/12/09 04:24:13;;;;;;;22.60;12.15;;;2.00;99.90;;;;;;5050942;28;20053;-71
2021/12/09 04:26:44;;;;;;;22.23;12.43;;;2.00;99.90;;;;;;5034819;28;20494;-70
2021/12/09 04:29:11;;;;;;;22.63;12.80;;;2.00;99.90;;;;;;5067005;28;20044;-70
2021/12/09 04:31:38;;;;;;;22.30;13.32;;;1.90;99.90;;;;;;5053407;28;20049;-71
2021/12/09 04:34:04;;;;;;;21.05;12.80;;;1.90;99.90;;;;;;5069865;28;20044;-71
2021/12/09 04:36:29;;;;;;;22.20;12.13;;;1.80;99.90;;;;;;5049591;28;20041;-70
2021/12/09 04:38:55;;;;;;;21.02;12.85;;;1.80;99.90;;;;;;5050514;28;20421;-71
2021/12/09 04:41:21;;;;;;;22.58;12.38;;;1.80;99.90;;;;;;5070237;28;20115;-71
2021/12/09 04:43:47;;;;;;;19.02;12.55;;;1.70;99.90;;;;;;5051626;28;20055;-70
2021/12/09 04:46:14;;;;;;;21.02;13.40;;;1.80;99.90;;;;;;5050290;28;20033;-71
2021/12/09 04:48:41;;;;;;;23.58;12.93;;;1.80;99.90;;;;;;5049394;28;20049;-70
2021/12/09 04:51:06;;;;;;;26.45;13.73;;;1.70;99.90;;;;;;5065935;28;20043;-71
2021/12/09 04:53:32;;;;;;;24.80;13.38;;;1.70;99.90;;;;;;5063536;28;20053;-71
2021/12/09 04:55:58;;;;;;;24.60;13.73;;;1.60;99.90;;;;;;5050254;28;20446;-71
2021/12/09 04:58:24;;;;;;;27.40;14.80;;;1.60;99.90;;;;;;5047652;28;20056;-71
2021/12/09 05:00:52;;;;;;;28.50;14.23;;;1.60;99.90;;;;;;5044786;28;20192;-71
2021/12/09 05:03:18;;;;;;;25.48;14.50;;;1.60;99.90;;;;;;5068179;28;20044;-70
2021/12/09 05:05:54;;;;;;;22.50;14.40;;;1.50;99.90;;;;;;5047428;28;20055;-71
2021/12/09 05:08:22;;;;;;;25.00;13.30;;;1.50;99.90;;;;;;5039557;28;20051;-71
2021/12/09 05:13:16;;;;;;;26.52;13.95;;;1.50;99.90;;;;;;5045825;28;20194;-71
2021/12/09 05:15:42;;;;;;;25.00;13.70;;;1.60;99.90;;;;;;5049006;28;20098;-71
2021/12/09 05:18:08;;;;;;;23.90;13.63;;;1.50;99.90;;;;;;5060003;28;20055;-70
2021/12/09 05:20:33;;;;;;;26.33;14.32;;;1.60;99.90;;;;;;5068835;28;20040;-71
2021/12/09 05:22:59;;;;;;;26.02;15.23;;;1.50;99.90;;;;;;5068745;28;20048;-70
2021/12/09 05:25:25;;;;;;;23.52;14.02;;;1.60;99.90;;;;;;5066307;28;20128;-70
2021/12/09 05:27:51;;;;;;;21.05;13.60;;;1.50;99.90;;;;;;5038677;28;20139;-70
2021/12/09 05:30:23;;;;;;;24.05;14.52;;;1.60;99.90;;;;;;5044787;28;20037;-70
2021/12/09 05:32:49;;;;;;;29.63;16.50;;;1.60;99.90;;;;;;5050600;28;20055;-71
2021/12/09 05:35:15;;;;;;;22.30;13.52;;;1.60;99.90;;;;;;5051933;28;20049;-70
2021/12/09 05:37:41;;;;;;;24.70;14.43;;;1.60;99.90;;;;;;5069276;28;20512;-70
2021/12/09 05:40:07;;;;;;;24.40;13.40;;;1.60;99.90;;;;;;5060141;28;20045;-71
2021/12/09 05:42:33;;;;;;;23.85;13.13;;;1.60;99.90;;;;;;5050221;28;20049;-71
2021/12/09 05:44:59;;;;;;;22.98;14.07;;;1.60;99.90;;;;;;5052357;28;20106;-70
2021/12/09 05:47:25;;;;;;;26.30;13.77;;;1.60;99.90;;;;;;5052616;28;20441;-71
2021/12/09 05:49:53;;;;;;;25.13;14.77;;;1.60;99.90;;;;;;5067504;28;20048;-71
2021/12/09 05:52:19;;;;;;;24.80;14.43;;;1.60;99.90;;;;;;5068109;28;20498;-71
2021/12/09 05:54:45;;;;;;;27.10;14.32;;;1.50;99.90;;;;;;5047187;28;20047;-71
2021/12/09 05:57:11;;;;;;;25.90;15.23;;;1.50;99.90;;;;;;5049128;28;20071;-71
2021/12/09 05:59:40;;;;;;;25.63;13.85;;;1.50;99.90;;;;;;5031678;28;20465;-71
2021/12/09 06:02:08;;;;;;;23.58;13.93;;;1.50;99.90;;;;;;5031697;28;20520;-72
2021/12/09 06:04:34;;;;;;;30.85;14.77;;;1.50;99.90;;;;;;5028617;28;20037;-71
2021/12/09 06:06:59;;;;;;;27.38;14.10;;;1.50;99.90;;;;;;5068514;28;20068;-72
2021/12/09 06:09:25;;;;;;;25.08;15.32;;;1.50;99.90;;;;;;5050855;28;20068;-72
2021/12/09 06:11:51;;;;;;;29.88;14.32;;;1.50;99.90;;;;;;5044780;28;20089;-71
2021/12/09 06:14:17;;;;;;;21.85;13.70;;;1.40;99.90;;;;;;5048839;28;20474;-72
2021/12/09 06:16:45;;;;;;;23.25;14.68;;;1.40;99.90;;;;;;5045895;28;20081;-71
2021/12/09 06:19:10;;;;;;;25.30;14.43;;;1.40;99.90;;;;;;5045856;28;20053;-72
2021/12/09 06:21:36;;;;;;;28.35;15.27;;;1.40;99.90;;;;;;5048911;28;20187;-71
2021/12/09 06:24:02;;;;;;;28.42;15.30;;;1.40;99.90;;;;;;5064377;28;20040;-71
2021/12/09 06:26:30;;;;;;;27.13;14.75;;;1.40;99.90;;;;;;5022630;28;20049;-71
2021/12/09 06:28:57;;;;;;;25.45;14.52;;;1.40;99.90;;;;;;5050038;28;20045;-71
2021/12/09 06:31:23;;;;;;;24.98;14.20;;;1.40;99.90;;;;;;5041565;28;20126;-72
2021/12/09 06:33:49;;;;;;;29.48;14.93;;;1.40;99.90;;;;;;5046546;28;20069;-72
2021/12/09 06:36:16;;;;;;;28.08;15.25;;;1.30;99.90;;;;;;5049854;28;20493;-71
2021/12/09 06:38:41;;;;;;;27.48;14.70;;;1.30;99.90;;;;;;5048457;28;20045;-73
2021/12/09 06:41:08;;;;;;;23.33;14.48;;;1.30;99.90;;;;;;5052368;28;20041;-71
2021/12/09 06:43:37;;;;;;;25.35;15.30;;;1.30;99.90;;;;;;5064101;28;20041;-71
2021/12/09 06:46:05;;;;;;;28.88;14.35;;;1.30;99.90;;;;;;5066599;28;20124;-72
2021/12/09 06:48:32;;;;;;;28.48;15.88;;;1.30;99.90;;;;;;5033805;28;20060;-72
2021/12/09 06:50:58;;;;;;;23.42;14.70;;;1.30;99.90;;;;;;5051597;28;20099;-72
2021/12/09 06:53:23;;;;;;;24.67;14.88;;;1.30;99.90;;;;;;5057775;28;20064;-72
2021/12/09 06:55:49;;;;;;;23.95;14.85;;;1.30;99.90;;;;;;5063293;28;20059;-72
2021/12/09 06:58:15;;;;;;;23.92;14.45;;;1.30;99.90;;;;;;5054366;28;20048;-72
2021/12/09 07:00:46;;;;;;;24.27;14.73;;;1.30;99.90;;;;;;5051520;28;20132;-72
2021/12/09 07:03:13;;;;;;;25.40;14.90;;;1.30;99.90;;;;;;5052360;28;20055;-72
2021/12/09 07:05:39;;;;;;;22.55;14.27;;;1.30;99.90;;;;;;5050856;28;20056;-72
2021/12/09 07:08:05;;;;;;;27.58;15.60;;;1.30;99.90;;;;;;5067129;28;20055;-72
2021/12/09 07:10:32;;;;;;;27.05;15.68;;;1.20;99.90;;;;;;5051701;28;20082;-72
2021/12/09 07:12:57;;;;;;;25.75;15.25;;;1.20;99.90;;;;;;5052260;28;20420;-72
2021/12/09 07:15:23;;;;;;;27.30;14.88;;;1.20;99.90;;;;;;5051232;28;20043;-71
2021/12/09 07:17:49;;;;;;;25.67;13.50;;;1.60;99.90;;;;;;5052269;28;20052;-72
2021/12/09 07:20:23;;;;;;;27.65;15.15;;;1.30;99.90;;;;;;5057410;28;20032;-72
2021/12/09 07:22:49;;;;;;;24.17;14.73;;;2.00;99.90;;;;;;5050269;28;20044;-72
2021/12/09 07:25:16;;;;;;;25.75;14.80;;;1.20;99.90;;;;;;5051631;28;20045;-72
2021/12/09 07:27:42;;;;;;;27.13;15.25;;;1.30;99.90;;;;;;5034526;28;20049;-72
2021/12/09 07:30:10;;;;;;;23.67;14.27;;;2.10;99.90;;;;;;5033152;28;20065;-72
2021/12/09 07:32:36;;;;;;;22.98;14.25;;;1.30;99.90;;;;;;5052145;28;20053;-71
2021/12/09 07:35:04;;;;;;;25.30;14.93;;;1.20;99.90;;;;;;5032102;28;20041;-72
2021/12/09 07:37:29;;;;;;;27.58;14.38;;;1.30;99.90;;;;;;5016421;28;20651;-71
2021/12/09 07:39:55;;;;;;;27.05;15.15;;;2.80;99.90;;;;;;5053471;28;20120;-71
2021/12/09 07:42:21;;;;;;;28.30;15.43;;;1.30;99.90;;;;;;5064496;28;20123;-71
2021/12/09 07:44:47;;;;;;;24.52;13.80;;;1.30;99.90;;;;;;5071862;28;20416;-71
2021/12/09 07:47:12;;;;;;;24.88;14.93;;;1.30;99.90;;;;;;5072467;28;20033;-71
2021/12/09 07:49:38;;;;;;;21.73;14.45;;;1.30;99.90;;;;;;5035186;28;20390;-71
2021/12/09 07:52:04;;;;;;;23.55;13.93;;;1.30;99.90;;;;;;5036600;28;20101;-71
2021/12/09 07:54:31;;;;;;;26.23;13.90;;;1.30;99.90;;;;;;5059341;28;20091;-72
2021/12/09 07:56:57;;;;;;;26.38;14.60;;;1.90;99.90;;;;;;5070449;28;20045;-71
2021/12/09 07:59:23;;;;;;;27.30;13.68;;;1.40;99.90;;;;;;5070109;28;20044;-71
2021/12/09 08:01:49;;;;;;;21.23;13.85;;;1.30;99.90;;;;;;5031214;28;20052;-71
2021/12/09 08:04:15;;;;;;;24.38;13.20;;;1.40;99.90;;;;;;5039062;28;20486;-71
2021/12/09 08:06:41;;;;;;;25.83;14.15;;;1.40;99.90;;;;;;5028669;28;20497;-70
2021/12/09 08:09:08;;;;;;;28.92;14.98;;;1.40;99.90;;;;;;5050991;28;20052;-71
2021/12/09 08:11:37;;;;;;;24.73;13.07;;;1.40;99.90;;;;;;5037236;28;20037;-71
2021/12/09 08:14:04;;;;;;;24.90;14.10;;;1.40;99.90;;;;;;5016256;28;20493;-71
2021/12/09 08:16:33;;;;;;;26.73;12.70;;;1.40;99.90;;;;;;5045444;22;20061;-70
2021/12/09 08:19:00;;;;;;;21.15;13.18;;;1.50;99.90;;;;;;5032215;28;20100;-71
2021/12/09 08:21:27;;;;;;;24.58;13.43;;;1.60;99.90;;;;;;5033606;28;20441;-72
2021/12/09 08:23:53;;;;;;;24.23;13.57;;;1.60;99.90;;;;;;5050148;28;20119;-72
2021/12/09 08:26:21;;;;;;;22.92;12.70;;;1.70;99.90;;;;;;5048217;28;20518;-71
2021/12/09 08:28:47;;;;;;;22.08;12.70;;;1.80;99.90;;;;;;5038356;28;20065;-71
2021/12/09 08:31:13;;;;;;;21.42;12.52;;;1.90;99.90;;;;;;5011599;28;20042;-71
2021/12/09 08:33:39;;;;;;;21.27;12.23;;;3.00;99.90;;;;;;5045845;28;20044;-72
2021/12/09 08:36:05;;;;;;;19.42;11.75;;;1.90;99.90;;;;;;5048334;28;20112;-70
2021/12/09 08:38:31;;;;;;;19.38;12.45;;;2.00;99.90;;;;;;5041404;28;20037;-70
2021/12/09 08:40:58;;;;;;;18.23;11.40;;;2.00;99.90;;;;;;5028160;28;20493;-69
2021/12/09 08:43:23;;;;;;;22.23;11.50;;;2.20;99.90;;;;;;5045401;28;20080;-70
2021/12/09 08:45:53;;;;;;;20.35;10.98;;;2.30;99.90;;;;;;5044363;28;20538;-70
2021/12/09 08:48:19;;;;;;;20.92;11.15;;;2.30;99.90;;;;;;5042749;28;20082;-70
2021/12/09 08:50:45;;;;;;;20.95;10.40;;;2.40;99.90;;;;;;5038889;28;20443;-69
2021/12/09 08:53:15;;;;;;;22.70;11.50;;;3.60;99.90;;;;;;5048244;28;20036;-70
2021/12/09 08:55:42;;;;;;;18.63;10.88;;;2.60;99.90;;;;;;5049439;28;20103;-70
2021/12/09 08:58:08;;;;;;;19.05;10.98;;;2.60;99.90;;;;;;5032443;28;20042;-70
2021/12/09 09:00:36;;;;;;;21.02;10.55;;;2.70;99.90;;;;;;5028820;28;20048;-70
2021/12/09 09:03:03;;;;;;;17.63;9.77;;;2.80;99.90;;;;;;5029078;28;20049;-71
2021/12/09 09:05:30;;;;;;;16.60;10.30;;;2.70;99.90;;;;;;5039144;28;20049;-71
2021/12/09 09:07:56;;;;;;;21.75;10.30;;;2.80;99.90;;;;;;5048775;28;20049;-70
2021/12/09 09:10:24;;;;;;;18.98;10.23;;;2.80;99.90;;;;;;5047151;28;20041;-70
2021/12/09 09:12:51;;;;;;;18.50;10.05;;;3.00;99.90;;;;;;5048507;28;20040;-70
2021/12/09 09:15:18;;;;;;;14.27;9.45;;;3.10;99.90;;;;;;5048481;28;20128;-71
2021/12/09 09:17:44;;;;;;;15.43;9.13;;;3.30;99.90;;;;;;5049425;28;20065;-70
2021/12/09 09:20:13;;;;;;;21.05;9.95;;;3.80;99.90;;;;;;5046470;28;20547;-70
2021/12/09 09:22:39;;;;;;;13.63;8.65;;;4.40;99.90;;;;;;5048599;28;20132;-70
2021/12/09 09:25:07;;;;;;;13.23;7.95;;;4.80;99.90;;;;;;5047988;28;20425;-70
2021/12/09 09:27:33;;;;;;;16.33;8.60;;;5.50;99.90;;;;;;5046959;28;20143;-71
2021/12/09 09:29:58;;;;;;;15.77;8.15;;;5.50;99.90;;;;;;5047577;28;20119;-70
2021/12/09 09:32:24;;;;;;;16.00;8.40;;;6.00;99.90;;;;;;5048711;28;20099;-71
2021/12/09 09:34:53;;;;;;;15.00;7.68;;;6.40;99.90;;;;;;5047038;28;20141;-71
2021/12/09 09:37:19;;;;;;;18.33;7.85;;;6.50;99.90;;;;;;5043709;28;20516;-71
2021/12/09 09:39:45;;;;;;;14.52;7.25;;;6.60;99.90;;;;;;5028797;28;20049;-71
2021/12/09 09:44:49;;;;;;;13.68;7.05;;;7.00;99.90;;;;;;5029866;28;20049;-71
2021/12/09 09:47:16;;;;;;;15.02;7.97;;;7.30;99.90;;;;;;5021887;28;20565;-70
2021/12/09 09:49:43;;;;;;;14.45;6.65;;;7.00;99.90;;;;;;5043456;28;20040;-71
2021/12/09 09:52:10;;;;;;;12.23;6.68;;;7.30;99.90;;;;;;5038757;28;20041;-71
2021/12/09 09:54:37;;;;;;;12.57;6.50;;;7.20;99.90;;;;;;5044184;28;20044;-71
2021/12/09 09:57:04;;;;;;;13.10;6.68;;;7.30;99.90;;;;;;5040601;28;20049;-71
2021/12/09 09:59:30;;;;;;;11.52;6.13;;;7.60;99.90;;;;;;5023989;28;20072;-73
2021/12/09 10:01:56;;;;;;;12.80;6.63;;;7.50;99.90;;;;;;5025090;28;20041;-73
2021/12/09 10:04:33;;;;;;;11.68;6.20;;;7.50;99.90;;;;;;5022463;28;20505;-73
2021/12/09 10:07:00;;;;;;;14.18;6.53;;;7.60;99.90;;;;;;5024226;28;20486;-74
2021/12/09 10:09:26;;;;;;;14.75;6.22;;;7.40;99.90;;;;;;5033910;28;20460;-72
2021/12/09 10:11:55;;;;;;;14.05;6.13;;;7.90;99.90;;;;;;5041709;28;20045;-73
2021/12/09 10:14:27;;;;;;;10.02;6.20;;;8.40;99.90;;;;;;5028661;28;20063;-73
2021/12/09 10:17:09;;;;;;;14.02;6.25;;;8.40;99.90;;;;;;5023203;28;20045;-70
2021/12/09 10:19:41;;;;;;;10.55;6.18;;;7.70;99.90;;;;;;5021407;28;20065;-70
2021/12/09 10:22:20;;;;;;;12.82;6.47;;;8.00;99.90;;;;;;5031529;28;20041;-71
2021/12/09 10:24:48;;;;;;;14.55;6.07;;;8.00;99.90;;;;;;5045534;28;20067;-71
2021/12/09 10:27:23;;;;;;;11.35;5.70;;;8.40;99.90;;;;;;5043761;28;20138;-70
2021/12/09 10:29:50;;;;;;;12.35;5.80;;;8.40;99.90;;;;;;5043671;28;20154;-70
2021/12/09 10:32:24;;;;;;;12.55;5.93;;;8.50;99.90;;;;;;5047565;28;20051;-71
2021/12/09 10:34:51;;;;;;;10.77;5.40;;;9.00;99.90;;;;;;5041499;28;20037;-71
2021/12/09 10:37:16;;;;;;;12.65;6.00;;;9.40;99.90;;;;;;5026672;28;20136;-71
2021/12/09 10:39:46;;;;;;;11.35;5.90;;;9.30;99.90;;;;;;5038038;28;20556;-70
2021/12/09 10:42:24;;;;;;;11.10;5.15;;;9.00;99.90;;;;;;5038755;28;20057;-71
2021/12/09 10:44:53;;;;;;;11.88;5.80;;;8.90;99.90;;;;;;5022630;28;20076;-70
2021/12/09 10:47:49;;;;;;;12.70;5.63;;;9.10;99.90;;;;;;5023131;28;20385;-71
2021/12/09 10:50:35;;;;;;;13.65;5.97;;;8.60;99.90;;;;;;5022978;28;20053;-70
2021/12/09 10:55:54;;;;;;;10.57;5.65;;;8.10;99.90;;;;;;5031525;28;20064;-71
2021/12/09 10:58:26;;;;;;;11.63;6.20;;;7.90;99.90;;;;;;5044813;28;20049;-70
2021/12/09 11:01:05;;;;;;;12.77;5.80;;;7.20;99.90;;;;;;5047542;28;20044;-70
2021/12/09 11:03:40;;;;;;;14.85;6.20;;;6.80;99.90;;;;;;5045415;28;20053;-70
2021/12/09 11:06:15;;;;;;;13.75;6.60;;;6.30;99.90;;;;;;5033738;28;20057;-70
2021/12/09 11:08:44;;;;;;;11.88;6.07;;;5.70;99.90;;;;;;5027434;28;20045;-70
2021/12/09 11:11:12;;;;;;;13.60;6.78;;;5.80;99.90;;;;;;5025917;28;20044;-70
2021/12/09 11:13:41;;;;;;;14.18;7.63;;;5.50;99.90;;;;;;5027293;28;20440;-70
2021/12/09 11:16:07;;;;;;;15.40;6.70;;;5.50;99.90;;;;;;5027562;28;20128;-69
2021/12/09 11:18:42;;;;;;;14.48;7.20;;;5.30;99.90;;;;;;5026012;28;20141;-69
2021/12/09 11:21:22;;;;;;;13.43;7.60;;;5.10;99.90;;;;;;5024613;28;20462;-70
2021/12/09 11:23:51;;;;;;;17.65;8.20;;;5.10;99.90;;;;;;5026324;28;20099;-70
2021/12/09 11:26:21;;;;;;;13.32;7.90;;;4.80;99.90;;;;;;5033479;28;20048;-69
2021/12/09 11:29:10;;;;;;;14.70;8.05;;;4.80;99.90;;;;;;5028761;28;20049;-70
2021/12/09 11:31:42;;;;;;;14.20;8.27;;;4.70;99.90;;;;;;5047904;28;20053;-70
2021/12/09 11:34:14;;;;;;;15.00;8.40;;;4.50;99.90;;;;;;5049812;28;20388;-70
2021/12/09 11:36:43;;;;;;;11.30;7.25;;;4.50;99.90;;;;;;5048475;28;20512;-70
2021/12/09 11:39:15;;;;;;;14.93;8.80;;;4.50;99.90;;;;;;5049508;28;20045;-71
2021/12/09 11:41:42;;;;;;;17.55;8.30;;;4.30;99.90;;;;;;5050572;28;20069;-70
2021/12/09 11:44:09;;;;;;;16.58;8.60;;;4.40;99.90;;;;;;5051601;28;20053;-69
2021/12/09 11:46:43;;;;;;;16.35;8.20;;;4.40;99.90;;;;;;5049421;28;20368;-69
2021/12/09 11:49:10;;;;;;;18.13;9.25;;;4.20;99.90;;;;;;5048732;28;20101;-72
2021/12/09 11:51:37;;;;;;;16.63;8.43;;;4.10;99.90;;;;;;5031385;28;20455;-69
2021/12/09 11:54:06;;;;;;;20.40;9.32;;;4.10;99.90;;;;;;5052888;28;20045;-71
2021/12/09 11:57:36;;;;;;;20.05;10.50;;;4.10;99.90;;;;;;5049332;28;20056;-70
2021/12/09 12:11:25;;;;;;;21.45;10.23;;;3.90;99.90;;;;;;5048057;28;20056;-71
2021/12/09 12:13:34;;;;;;;22.58;10.65;;;3.80;99.90;;;;;;5030991;28;20103;-70
2021/12/09 12:16:27;;;;;;;21.83;10.82;;;3.90;99.90;;;;;;5049579;28;20048;-69
2021/12/09 12:19:03;;;;;;;27.15;11.00;;;3.90;99.90;;;;;;5049208;28;20053;-69
2021/12/09 12:32:32;;;;;;;25.05;10.57;;;3.90;99.90;;;;;;5048075;28;20187;-69
2021/12/09 12:40:24;;;;;;;23.10;10.73;;;3.90;99.90;;;;;;5049579;28;20053;-70
2021/12/09 12:43:15;;;;;;;20.33;11.23;;;3.90;99.90;;;;;;5050445;28;20088;-70
2021/12/09 12:45:58;;;;;;;19.27;9.82;;;5.00;99.90;;;;;;5049397;28;20051;-70
2021/12/09 12:51:47;;;;;;;17.88;9.88;;;4.00;99.90;;;;;;5048046;28;20103;-71
2021/12/09 12:54:15;;;;;;;24.05;10.77;;;4.00;99.90;;;;;;5031983;28;20603;-69
2021/12/09 12:56:54;;;;;;;21.08;10.32;;;4.00;99.90;;;;;;5050813;28;20076;-69
2021/12/09 12:59:23;;;;;;;20.88;10.25;;;3.90;99.90;;;;;;5031561;28;20037;-70
2021/12/09 13:02:11;;;;;;;20.80;9.82;;;4.00;99.90;;;;;;5048313;28;20131;-69
2021/12/09 13:10:50;;;;;;;17.75;10.27;;;4.00;99.90;;;;;;5051200;28;20057;-70
2021/12/09 13:19:28;;;;;;;22.65;12.15;;;4.00;99.90;;;;;;5049620;28;20050;-70
2021/12/09 13:22:11;;;;;;;25.65;12.25;;;4.00;99.90;;;;;;5029630;28;20057;-70
2021/12/09 13:24:47;;;;;;;17.90;11.98;;;4.00;99.90;;;;;;5031455;28;20127;-70
2021/12/09 13:35:51;;;;;;;18.83;11.20;;;4.10;99.90;;;;;;5026154;28;20128;-69
2021/12/09 13:38:42;;;;;;;23.10;11.90;;;4.10;99.90;;;;;;5026414;28;20428;-70
2021/12/09 13:49:40;;;;;;;24.42;12.98;;;4.00;99.90;;;;;;5027027;28;20497;-70
2021/12/09 13:54:07;;;;;;;22.02;12.10;;;4.00;99.90;;;;;;5026738;28;20042;-70
2021/12/09 13:54:54;;;;;;;27.38;12.90;;;4.00;99.90;;;;;;5027021;28;20065;-70